Time;durP1;ratioP1;P1;durP2;ratioP2;P2;SDS_P1;SDS_P2;PMS_P1;PMS_P2;Temp;Humidity;BMP_temperature;BMP_pressure;BME280_temperature;BME280_humidity;BME280_pressure;Samples;Min_cycle;Max_cycle;Signal;HPM_P1;HPM_P2
2021/12/10 00:00:55;;;;;;;52.33;25.25;;;4.10;99.90;;;;;;4979588;28;20545;-78
2021/12/10 00:03:38;;;;;;;48.67;24.60;;;4.10;99.90;;;;;;4982671;28;20126;-78
2021/12/10 00:06:11;;;;;;;44.28;23.98;;;4.10;99.90;;;;;;4974033;28;20046;-78
2021/12/10 00:08:40;;;;;;;49.55;25.73;;;4.10;99.90;;;;;;4973578;28;20050;-78
2021/12/10 00:11:28;;;;;;;46.35;24.85;;;4.10;99.90;;;;;;4973647;28;20038;-78
2021/12/10 00:13:53;;;;;;;44.35;23.98;;;4.10;99.90;;;;;;4989454;28;20043;-78
2021/12/10 00:16:20;;;;;;;44.95;23.23;;;4.20;99.90;;;;;;4983196;28;20089;-78
2021/12/10 00:18:54;;;;;;;43.67;23.73;;;4.10;99.90;;;;;;4973557;28;20050;-78
2021/12/10 00:21:23;;;;;;;48.67;22.27;;;4.10;99.90;;;;;;4973519;28;20109;-78
2021/12/10 00:23:50;;;;;;;43.55;23.95;;;4.10;99.90;;;;;;4973220;28;20039;-78
2021/12/10 00:26:23;;;;;;;46.17;23.15;;;4.10;99.90;;;;;;4962806;28;20121;-78
2021/12/10 00:28:50;;;;;;;43.60;23.30;;;4.20;99.90;;;;;;4978570;28;20129;-79
2021/12/10 00:31:46;;;;;;;42.85;21.90;;;4.10;99.90;;;;;;4973466;28;20038;-78
2021/12/10 00:34:15;;;;;;;41.20;22.67;;;4.20;99.90;;;;;;4972598;28;20527;-78
2021/12/10 00:36:42;;;;;;;43.15;22.65;;;4.10;99.90;;;;;;4975584;28;20039;-78
2021/12/10 00:39:30;;;;;;;42.08;22.80;;;4.10;99.90;;;;;;4984933;28;20142;-78
2021/12/10 00:41:57;;;;;;;41.83;21.35;;;4.10;99.90;;;;;;4988942;28;20043;-78
2021/12/10 00:44:23;;;;;;;38.50;20.83;;;4.20;99.90;;;;;;5008310;28;20050;-78
2021/12/10 00:46:49;;;;;;;39.47;21.75;;;4.10;99.90;;;;;;4986347;28;20043;-78
2021/12/10 00:49:14;;;;;;;45.08;22.67;;;4.10;99.90;;;;;;4966544;28;20436;-78
2021/12/10 00:51:41;;;;;;;41.28;21.63;;;4.10;99.90;;;;;;4975840;28;20527;-78
2021/12/10 00:54:08;;;;;;;41.10;21.77;;;4.20;99.90;;;;;;4979938;28;20520;-78
2021/12/10 00:56:35;;;;;;;40.95;21.77;;;4.20;99.90;;;;;;5004916;28;20113;-78
2021/12/10 00:59:02;;;;;;;42.90;21.60;;;4.20;99.90;;;;;;5006190;28;20505;-78
2021/12/10 01:01:30;;;;;;;37.47;20.13;;;4.20;99.90;;;;;;4996990;28;20129;-78
2021/12/10 01:04:07;;;;;;;41.65;21.40;;;4.20;99.90;;;;;;4974184;28;20051;-78
2021/12/10 01:06:34;;;;;;;42.50;21.98;;;4.20;99.90;;;;;;4986963;28;20049;-78
2021/12/10 01:09:06;;;;;;;40.22;21.17;;;4.20;99.90;;;;;;4974248;28;20133;-78
2021/12/10 01:11:40;;;;;;;39.20;22.23;;;4.20;99.90;;;;;;5004509;28;20085;-78
2021/12/10 01:14:16;;;;;;;;;;;4.20;99.90;;;;;;5005086;28;20096;-78
2021/12/10 01:27:34;;;;;;;41.05;20.60;;;4.20;99.90;;;;;;5007953;28;20444;-78
2021/12/10 01:30:12;;;;;;;40.60;21.00;;;4.20;99.90;;;;;;4975261;28;20150;-78
2021/12/10 01:32:41;;;;;;;36.17;20.48;;;4.20;99.90;;;;;;4979794;28;20424;-78
2021/12/10 01:35:10;;;;;;;35.88;20.15;;;4.20;99.90;;;;;;4972883;28;20527;-78
2021/12/10 01:37:36;;;;;;;43.25;21.80;;;4.20;99.90;;;;;;4982779;28;20034;-79
2021/12/10 01:40:06;;;;;;;36.72;19.33;;;4.20;99.90;;;;;;4971197;28;20043;-78
2021/12/10 01:42:48;;;;;;;36.90;20.00;;;4.10;99.90;;;;;;4983069;28;20046;-78
2021/12/10 01:45:22;;;;;;;36.42;18.90;;;4.20;99.90;;;;;;4975219;28;20045;-78
2021/12/10 01:47:58;;;;;;;38.58;18.90;;;4.10;99.90;;;;;;4991296;28;20053;-78
2021/12/10 01:50:26;;;;;;;33.15;17.85;;;4.10;99.90;;;;;;4986482;28;20050;-79
2021/12/10 01:53:08;;;;;;;35.88;18.33;;;4.10;99.90;;;;;;4983512;28;20039;-78
2021/12/10 01:55:36;;;;;;;33.33;17.10;;;4.10;99.90;;;;;;5004762;28;20038;-78
2021/12/10 01:58:06;;;;;;;33.03;17.63;;;4.10;99.90;;;;;;4975903;28;20069;-79
2021/12/10 02:00:37;;;;;;;26.90;16.05;;;4.10;99.90;;;;;;4984226;28;20407;-78
2021/12/10 02:03:03;;;;;;;28.20;16.10;;;4.10;99.90;;;;;;4987617;28;20077;-79
2021/12/10 02:05:29;;;;;;;30.88;15.45;;;4.00;99.90;;;;;;4977301;28;20083;-79
2021/12/10 02:07:58;;;;;;;29.90;15.07;;;4.10;99.90;;;;;;4971933;28;20050;-79
2021/12/10 02:10:26;;;;;;;28.58;15.60;;;4.10;99.90;;;;;;5004979;28;20042;-79
2021/12/10 02:12:52;;;;;;;28.10;15.40;;;4.10;99.90;;;;;;5003407;28;20039;-78
2021/12/10 02:15:20;;;;;;;24.25;15.48;;;4.10;99.90;;;;;;4987659;28;20041;-78
2021/12/10 02:17:49;;;;;;;41.83;16.15;;;4.10;99.90;;;;;;5003832;28;20034;-79
2021/12/10 02:21:11;;;;;;;24.13;15.07;;;4.00;99.90;;;;;;5004248;28;20046;-79
2021/12/10 02:23:43;;;;;;;28.25;14.88;;;4.00;99.90;;;;;;4974886;28;20042;-79
2021/12/10 02:26:11;;;;;;;27.83;13.70;;;4.00;99.90;;;;;;4976925;28;20038;-79
2021/12/10 02:28:39;;;;;;;27.23;15.23;;;4.00;99.90;;;;;;4979554;28;20081;-79
2021/12/10 02:31:07;;;;;;;29.15;15.48;;;4.00;99.90;;;;;;4986684;28;20105;-79
2021/12/10 02:33:33;;;;;;;26.55;14.45;;;4.00;99.90;;;;;;4983861;28;20039;-78
2021/12/10 02:35:58;;;;;;;25.60;14.38;;;4.00;99.90;;;;;;4955972;28;20122;-79
2021/12/10 02:38:24;;;;;;;26.35;15.02;;;4.00;99.90;;;;;;4982426;28;20039;-79
2021/12/10 02:40:52;;;;;;;30.85;14.35;;;4.00;99.90;;;;;;4990346;28;20138;-79
2021/12/10 02:43:20;;;;;;;27.73;15.35;;;4.00;99.90;;;;;;4990258;28;20034;-79
2021/12/10 02:45:51;;;;;;;24.63;15.85;;;4.00;99.90;;;;;;4982303;28;20038;-79
2021/12/10 02:48:16;;;;;;;35.80;15.63;;;4.00;99.90;;;;;;5004450;28;20156;-79
2021/12/10 02:50:43;;;;;;;25.15;14.65;;;4.00;99.90;;;;;;5006958;28;20166;-78
2021/12/10 02:53:11;;;;;;;31.08;16.00;;;4.00;99.90;;;;;;4979348;28;20043;-78
2021/12/10 02:55:37;;;;;;;27.33;15.23;;;4.00;99.90;;;;;;4989633;28;20101;-78
2021/12/10 02:58:10;;;;;;;30.70;15.02;;;3.90;99.90;;;;;;5005604;28;20118;-78
2021/12/10 03:00:43;;;;;;;28.63;15.70;;;4.00;99.90;;;;;;4978332;28;20042;-79
2021/12/10 03:03:09;;;;;;;25.80;14.55;;;3.90;99.90;;;;;;4972498;28;20460;-79
2021/12/10 03:05:35;;;;;;;31.35;16.73;;;3.90;99.90;;;;;;4986846;28;20049;-78
2021/12/10 03:08:01;;;;;;;26.13;15.20;;;3.90;99.90;;;;;;5003598;28;20628;-79
2021/12/10 03:10:29;;;;;;;32.35;16.67;;;3.90;99.90;;;;;;5005989;28;20460;-79
2021/12/10 03:12:55;;;;;;;28.23;17.02;;;3.90;99.90;;;;;;4979785;28;20078;-78
2021/12/10 03:15:23;;;;;;;33.20;16.63;;;3.90;99.90;;;;;;5003629;28;20074;-78
2021/12/10 03:17:48;;;;;;;32.08;16.75;;;3.90;99.90;;;;;;4987231;28;20500;-78
2021/12/10 03:20:18;;;;;;;25.77;16.00;;;3.90;99.90;;;;;;4985970;28;20031;-79
2021/12/10 03:22:45;;;;;;;25.50;15.73;;;3.90;99.90;;;;;;4982827;28;20496;-78
2021/12/10 03:25:13;;;;;;;28.05;15.85;;;3.90;99.90;;;;;;4990296;28;20043;-79
2021/12/10 03:27:40;;;;;;;30.55;16.50;;;3.90;99.90;;;;;;4981421;28;20043;-79
2021/12/10 03:30:09;;;;;;;29.52;16.88;;;3.90;99.90;;;;;;5003443;28;20037;-79
2021/12/10 03:32:36;;;;;;;33.67;16.83;;;3.90;99.90;;;;;;5004516;28;20046;-78
2021/12/10 03:35:09;;;;;;;30.90;16.30;;;3.90;99.90;;;;;;4971030;28;20038;-79
2021/12/10 03:37:36;;;;;;;33.28;16.55;;;3.90;99.90;;;;;;4981988;28;20116;-79
2021/12/10 03:40:07;;;;;;;28.75;16.60;;;3.90;99.90;;;;;;4971294;28;20043;-79
2021/12/10 03:42:33;;;;;;;27.40;16.73;;;3.90;99.90;;;;;;4977387;28;20042;-78
2021/12/10 03:44:58;;;;;;;34.22;16.30;;;3.90;99.90;;;;;;4964841;28;20093;-78
2021/12/10 03:47:24;;;;;;;29.60;16.50;;;3.90;99.90;;;;;;4988824;28;20133;-79
2021/12/10 03:49:50;;;;;;;33.47;17.23;;;3.90;99.90;;;;;;4969558;28;20130;-79
2021/12/10 03:52:16;;;;;;;30.02;16.02;;;3.80;99.90;;;;;;5006863;28;20045;-79
2021/12/10 03:54:42;;;;;;;31.10;15.80;;;3.80;99.90;;;;;;4974070;28;20047;-79
2021/12/10 03:57:09;;;;;;;30.10;15.55;;;3.80;99.90;;;;;;4981829;28;20057;-79
2021/12/10 03:59:36;;;;;;;28.98;15.80;;;3.90;99.90;;;;;;4984312;28;20034;-78
2021/12/10 04:02:04;;;;;;;27.83;15.32;;;3.80;99.90;;;;;;4992645;28;20058;-79
2021/12/10 04:04:41;;;;;;;26.50;14.70;;;3.90;99.90;;;;;;4983532;28;20405;-78
2021/12/10 04:07:12;;;;;;;28.00;15.90;;;3.80;99.90;;;;;;4990778;28;20042;-79
2021/12/10 04:09:38;;;;;;;28.15;15.70;;;3.80;99.90;;;;;;4988972;28;20057;-79
2021/12/10 04:12:07;;;;;;;28.80;16.25;;;3.80;99.90;;;;;;4979241;28;20034;-79
2021/12/10 04:14:33;;;;;;;32.10;16.70;;;3.80;99.90;;;;;;4981943;28;20567;-79
2021/12/10 04:16:59;;;;;;;28.38;16.45;;;3.80;99.90;;;;;;4989087;28;20512;-79
2021/12/10 04:19:28;;;;;;;30.00;17.63;;;3.80;99.90;;;;;;4976896;28;20030;-78
2021/12/10 04:21:56;;;;;;;31.15;16.92;;;3.80;99.90;;;;;;5008736;28;20053;-79
2021/12/10 04:24:25;;;;;;;36.40;18.88;;;3.80;99.90;;;;;;4985110;28;20155;-79
2021/12/10 04:26:52;;;;;;;30.63;18.63;;;3.80;99.90;;;;;;5006087;28;20086;-79
2021/12/10 04:29:20;;;;;;;30.23;18.15;;;3.80;99.90;;;;;;4983160;28;20038;-79
2021/12/10 04:31:51;;;;;;;31.92;18.80;;;3.70;99.90;;;;;;5005424;28;20038;-79
2021/12/10 04:34:18;;;;;;;32.50;19.85;;;3.70;99.90;;;;;;4980349;28;20062;-79
2021/12/10 04:36:44;;;;;;;33.70;19.58;;;3.70;99.90;;;;;;5009038;28;20042;-79
2021/12/10 04:39:10;;;;;;;31.00;19.20;;;3.70;99.90;;;;;;4992714;28;20049;-79
2021/12/10 04:41:36;;;;;;;29.10;19.13;;;3.60;99.90;;;;;;4975837;28;20046;-79
2021/12/10 04:44:02;;;;;;;26.35;18.05;;;3.60;99.90;;;;;;5008592;28;20088;-79
2021/12/10 04:46:27;;;;;;;28.13;18.40;;;3.50;99.90;;;;;;4976902;28;20562;-79
2021/12/10 04:48:59;;;;;;;30.38;18.52;;;3.50;99.90;;;;;;4992612;28;20038;-79
2021/12/10 04:51:29;;;;;;;25.00;17.45;;;3.40;99.90;;;;;;4974867;28;20129;-79
2021/12/10 04:53:57;;;;;;;28.17;18.60;;;3.30;99.90;;;;;;4988374;28;20121;-79
2021/12/10 04:56:23;;;;;;;27.50;18.02;;;3.20;99.90;;;;;;4981826;28;20369;-79
2021/12/10 04:58:49;;;;;;;30.20;18.95;;;3.20;99.90;;;;;;4987261;28;20030;-79
2021/12/10 05:01:16;;;;;;;34.08;18.50;;;3.10;99.90;;;;;;4992499;28;20053;-79
2021/12/10 05:03:41;;;;;;;30.40;19.42;;;3.10;99.90;;;;;;4991640;28;20682;-79
2021/12/10 05:06:07;;;;;;;32.53;18.77;;;3.00;99.90;;;;;;4973228;28;20035;-79
2021/12/10 05:08:35;;;;;;;30.83;20.52;;;3.00;99.90;;;;;;5008935;28;20121;-79
2021/12/10 05:11:04;;;;;;;30.90;19.80;;;2.90;99.90;;;;;;4985037;28;20035;-79
2021/12/10 05:13:30;;;;;;;30.38;18.90;;;2.90;99.90;;;;;;5008198;28;20118;-79
2021/12/10 05:15:58;;;;;;;29.65;19.73;;;2.80;99.90;;;;;;4974315;28;20523;-79
2021/12/10 05:18:26;;;;;;;30.13;19.50;;;2.80;99.90;;;;;;5005739;28;20069;-78
2021/12/10 05:20:52;;;;;;;31.52;19.98;;;2.80;99.90;;;;;;5008438;28;20058;-78
2021/12/10 05:23:19;;;;;;;33.05;19.75;;;2.80;99.90;;;;;;4977854;28;20070;-79
2021/12/10 05:25:44;;;;;;;35.10;20.40;;;2.80;99.90;;;;;;5007696;28;20148;-78
2021/12/10 05:28:11;;;;;;;31.02;19.15;;;2.80;99.90;;;;;;4990751;28;20074;-79
2021/12/10 05:30:37;;;;;;;36.97;19.33;;;2.80;99.90;;;;;;4992169;28;20031;-79
2021/12/10 05:33:04;;;;;;;30.05;18.52;;;2.80;99.90;;;;;;4979468;28;20101;-79
2021/12/10 05:35:32;;;;;;;32.80;19.48;;;2.90;99.90;;;;;;4980666;28;20035;-79
2021/12/10 05:37:58;;;;;;;31.38;19.05;;;2.90;99.90;;;;;;4973398;28;20053;-79
2021/12/10 05:40:24;;;;;;;31.63;18.70;;;2.90;99.90;;;;;;5004834;28;20035;-79
2021/12/10 05:42:51;;;;;;;29.80;18.40;;;2.80;99.90;;;;;;5007575;28;20069;-79
2021/12/10 05:45:19;;;;;;;28.05;18.73;;;2.80;99.90;;;;;;4986890;28;20535;-78
2021/12/10 05:47:46;;;;;;;34.80;18.85;;;2.80;99.90;;;;;;4971816;28;20073;-79
2021/12/10 05:50:14;;;;;;;28.95;19.30;;;2.70;99.90;;;;;;5006307;28;20474;-79
2021/12/10 05:52:40;;;;;;;30.20;18.80;;;2.70;99.90;;;;;;4965854;28;20047;-79
2021/12/10 05:55:06;;;;;;;30.45;19.02;;;2.60;99.90;;;;;;4978619;28;20559;-79
2021/12/10 05:57:32;;;;;;;32.92;18.95;;;2.60;99.90;;;;;;4955964;28;20057;-79
2021/12/10 05:59:57;;;;;;;28.88;18.83;;;2.60;99.90;;;;;;4983332;28;20038;-79
2021/12/10 06:02:23;;;;;;;29.35;19.67;;;2.50;99.90;;;;;;4981165;28;20078;-79
2021/12/10 06:04:49;;;;;;;30.30;19.30;;;2.50;99.90;;;;;;4982742;28;20035;-79
2021/12/10 06:07:14;;;;;;;28.40;19.55;;;2.50;99.90;;;;;;4991048;28;20034;-79
2021/12/10 06:09:40;;;;;;;30.23;20.13;;;2.50;99.90;;;;;;4986956;28;20049;-79
2021/12/10 06:12:06;;;;;;;30.67;20.10;;;2.40;99.90;;;;;;4972899;28;20042;-79
2021/12/10 06:14:32;;;;;;;30.50;20.25;;;2.40;99.90;;;;;;4989317;28;20035;-78
2021/12/10 06:16:58;;;;;;;30.02;20.08;;;2.40;99.90;;;;;;5006440;28;20057;-79
2021/12/10 06:19:23;;;;;;;33.85;20.17;;;2.40;99.90;;;;;;4976122;28;20126;-79
2021/12/10 06:21:50;;;;;;;29.67;19.20;;;2.40;99.90;;;;;;5004048;28;20054;-79
2021/12/10 06:24:15;;;;;;;31.27;20.00;;;2.40;99.90;;;;;;5003564;28;20045;-79
2021/12/10 06:26:41;;;;;;;30.30;20.00;;;2.40;99.90;;;;;;5007575;28;20038;-79
2021/12/10 06:29:07;;;;;;;29.98;19.90;;;2.40;99.90;;;;;;4979641;28;20046;-79
2021/12/10 06:31:33;;;;;;;29.08;19.20;;;2.30;99.90;;;;;;5012387;28;20455;-79
2021/12/10 06:34:00;;;;;;;28.55;19.02;;;2.30;99.90;;;;;;4996959;28;20034;-79
2021/12/10 06:36:26;;;;;;;30.75;19.13;;;2.30;99.90;;;;;;4987400;28;20526;-79
2021/12/10 06:38:51;;;;;;;28.88;18.98;;;2.30;99.90;;;;;;4971450;28;20076;-78
2021/12/10 06:41:17;;;;;;;29.65;18.48;;;2.20;99.90;;;;;;4990732;28;20027;-79
2021/12/10 06:43:44;;;;;;;28.63;17.45;;;2.20;99.90;;;;;;4990767;28;20141;-79
2021/12/10 06:46:10;;;;;;;24.63;17.35;;;2.20;99.90;;;;;;4988470;28;20574;-78
2021/12/10 06:48:37;;;;;;;28.48;18.92;;;2.20;99.90;;;;;;4992080;28;20126;-79
2021/12/10 06:51:09;;;;;;;25.17;18.08;;;2.20;99.90;;;;;;5010618;28;20042;-79
2021/12/10 06:53:37;;;;;;;28.02;17.35;;;2.10;99.90;;;;;;4982670;28;20568;-79
2021/12/10 06:56:04;;;;;;;27.88;17.08;;;2.10;99.90;;;;;;4976275;28;20039;-79
2021/12/10 06:58:32;;;;;;;26.20;17.15;;;2.10;99.90;;;;;;4976947;28;20170;-79
2021/12/10 07:01:06;;;;;;;28.80;16.58;;;2.10;99.90;;;;;;4972694;28;20161;-79
2021/12/10 07:03:32;;;;;;;;;;;2.10;99.90;;;;;;4991131;28;20095;-79
2021/12/10 07:05:59;;;;;;;25.42;15.85;;;2.00;99.90;;;;;;4960012;28;20332;-79
2021/12/10 07:08:27;;;;;;;23.08;16.02;;;2.00;99.90;;;;;;4971312;28;20042;-79
2021/12/10 07:10:54;;;;;;;27.98;16.10;;;2.00;99.90;;;;;;4971378;28;20038;-78
2021/12/10 07:13:19;;;;;;;27.42;15.48;;;2.00;99.90;;;;;;4973696;28;20046;-79
2021/12/10 07:15:48;;;;;;;23.52;15.13;;;2.00;99.90;;;;;;4974784;28;20559;-78
2021/12/10 07:18:14;;;;;;;24.48;14.93;;;2.00;99.90;;;;;;4992837;28;20092;-79
2021/12/10 07:20:41;;;;;;;24.45;14.38;;;2.00;99.90;;;;;;4978531;28;20046;-79
2021/12/10 07:23:07;;;;;;;23.13;13.57;;;1.90;99.90;;;;;;4979217;28;20046;-79
2021/12/10 07:25:33;;;;;;;23.25;14.30;;;1.90;99.90;;;;;;4977037;28;20049;-79
2021/12/10 07:27:59;;;;;;;21.52;14.20;;;1.90;99.90;;;;;;4992181;28;20120;-79
2021/12/10 07:30:26;;;;;;;20.67;12.95;;;1.90;99.90;;;;;;5007850;28;20046;-79
2021/12/10 07:32:52;;;;;;;20.13;12.73;;;1.80;99.90;;;;;;4990141;28;20043;-79
2021/12/10 07:35:20;;;;;;;21.50;13.05;;;1.80;99.90;;;;;;4990040;28;20129;-79
2021/12/10 07:37:46;;;;;;;19.60;12.88;;;1.80;99.90;;;;;;4981889;28;20040;-79
2021/12/10 07:40:20;;;;;;;19.08;12.70;;;1.70;99.90;;;;;;4987362;28;20122;-79
2021/12/10 07:42:46;;;;;;;22.38;13.10;;;1.80;99.90;;;;;;4981569;28;20125;-79
2021/12/10 07:45:12;;;;;;;19.23;12.93;;;1.70;99.90;;;;;;4997149;28;20080;-79
2021/12/10 07:47:38;;;;;;;18.25;12.32;;;1.70;99.90;;;;;;4976472;28;20128;-80
2021/12/10 07:50:09;;;;;;;22.73;13.17;;;1.60;99.90;;;;;;4981268;28;20135;-80
2021/12/10 07:52:35;;;;;;;21.60;13.15;;;1.60;99.90;;;;;;4979224;28;20611;-79
2021/12/10 07:55:05;;;;;;;22.30;14.23;;;1.60;99.90;;;;;;4986176;28;20519;-79
2021/12/10 07:57:31;;;;;;;20.47;12.80;;;1.60;99.90;;;;;;4986093;28;20474;-80
2021/12/10 07:59:57;;;;;;;20.00;12.30;;;1.60;99.90;;;;;;4992494;28;20046;-79
2021/12/10 08:02:24;;;;;;;22.50;13.43;;;1.50;99.90;;;;;;4995274;28;20083;-79
2021/12/10 08:04:49;;;;;;;20.20;11.97;;;1.50;99.90;;;;;;4994794;28;20439;-79
2021/12/10 08:07:15;;;;;;;22.83;14.10;;;1.50;99.90;;;;;;4977762;28;20038;-79
2021/12/10 08:09:43;;;;;;;19.43;12.50;;;1.50;99.90;;;;;;4993080;28;20412;-79
2021/12/10 08:12:08;;;;;;;20.00;12.57;;;1.50;99.90;;;;;;4993441;28;20125;-80
2021/12/10 08:14:34;;;;;;;20.48;12.85;;;1.50;99.90;;;;;;4994184;28;20519;-80
2021/12/10 08:17:00;;;;;;;19.02;12.30;;;1.50;99.90;;;;;;4993683;28;20085;-80
2021/12/10 08:19:25;;;;;;;21.07;12.50;;;1.50;99.90;;;;;;4993922;28;20840;-80
2021/12/10 08:21:51;;;;;;;18.45;12.18;;;1.50;99.90;;;;;;4993868;28;20347;-80
2021/12/10 08:24:17;;;;;;;19.00;11.27;;;1.50;99.90;;;;;;4977382;28;20046;-79
2021/12/10 08:26:43;;;;;;;20.00;11.60;;;1.50;99.90;;;;;;4994064;28;20046;-79
2021/12/10 08:29:10;;;;;;;18.93;11.37;;;1.50;99.90;;;;;;4991465;28;20042;-79
2021/12/10 08:31:36;;;;;;;19.87;11.07;;;1.50;99.90;;;;;;4973545;28;20042;-78
2021/12/10 08:34:01;;;;;;;19.13;11.47;;;1.50;99.90;;;;;;4986875;28;20108;-79
2021/12/10 08:36:28;;;;;;;22.07;12.07;;;1.50;99.90;;;;;;4998679;28;20053;-79
2021/12/10 08:38:55;;;;;;;19.13;12.00;;;1.50;99.90;;;;;;5012826;28;20041;-79
2021/12/10 08:41:24;;;;;;;18.23;12.50;;;1.50;99.90;;;;;;4994404;28;20089;-79
2021/12/10 08:43:51;;;;;;;18.83;12.27;;;1.50;99.90;;;;;;4982083;28;20197;-79
2021/12/10 08:46:17;;;;;;;18.87;11.87;;;1.50;99.90;;;;;;5006355;28;20039;-80
2021/12/10 08:48:43;;;;;;;19.03;12.20;;;1.50;99.90;;;;;;5007796;28;20408;-79
2021/12/10 08:51:18;;;;;;;18.93;11.37;;;1.60;99.90;;;;;;5005618;28;20094;-79
2021/12/10 08:53:44;;;;;;;20.53;11.67;;;1.60;99.90;;;;;;5007201;28;20042;-79
2021/12/10 08:56:09;;;;;;;18.80;12.20;;;1.60;99.90;;;;;;5006230;28;20039;-79
2021/12/10 08:58:35;;;;;;;18.57;11.27;;;1.60;99.90;;;;;;4988164;28;20129;-79
2021/12/10 09:01:06;;;;;;;19.47;11.77;;;1.70;99.90;;;;;;4989161;28;20039;-79
2021/12/10 09:03:33;;;;;;;21.20;11.87;;;1.70;99.90;;;;;;4978775;28;20410;-79
2021/12/10 09:05:59;;;;;;;16.43;10.70;;;1.70;99.90;;;;;;4987048;28;20039;-79
2021/12/10 09:08:25;;;;;;;17.20;10.57;;;1.70;99.90;;;;;;4993552;28;20062;-79
2021/12/10 09:10:50;;;;;;;18.67;10.63;;;1.80;99.90;;;;;;4992043;28;20293;-79
2021/12/10 09:13:20;;;;;;;15.93;11.20;;;1.80;99.90;;;;;;4985385;28;20105;-79
2021/12/10 09:15:49;;;;;;;16.23;10.53;;;1.80;99.90;;;;;;4988749;28;20054;-79
2021/12/10 09:18:15;;;;;;;18.03;10.43;;;1.90;99.90;;;;;;4989077;28;20038;-79
2021/12/10 09:20:44;;;;;;;19.17;10.20;;;1.90;99.90;;;;;;4983822;28;20038;-79
2021/12/10 09:23:13;;;;;;;17.23;10.50;;;2.00;99.90;;;;;;4990145;28;20385;-79
2021/12/10 09:25:41;;;;;;;19.13;10.93;;;2.00;99.90;;;;;;4985499;28;20048;-79
2021/12/10 09:28:07;;;;;;;18.03;10.53;;;2.10;99.90;;;;;;4976558;28;20080;-80
2021/12/10 09:30:34;;;;;;;17.07;10.63;;;2.10;99.90;;;;;;4972818;28;20042;-80
2021/12/10 09:33:00;;;;;;;16.27;9.53;;;2.10;99.90;;;;;;4981139;28;20053;-78
2021/12/10 09:35:28;;;;;;;16.37;10.10;;;2.20;99.90;;;;;;4985506;28;20082;-78
2021/12/10 09:37:54;;;;;;;21.67;9.60;;;2.30;99.90;;;;;;4986254;28;20408;-79
2021/12/10 09:40:27;;;;;;;15.87;8.83;;;2.30;99.90;;;;;;4974939;28;20042;-79
2021/12/10 09:42:55;;;;;;;17.67;10.35;;;2.30;99.90;;;;;;5008045;28;20050;-79
2021/12/10 09:45:23;;;;;;;12.45;8.75;;;2.40;99.90;;;;;;4991515;28;20100;-79
2021/12/10 09:47:49;;;;;;;15.30;9.30;;;2.40;99.90;;;;;;4975411;28;20500;-79
2021/12/10 09:50:17;;;;;;;15.73;9.80;;;2.50;99.90;;;;;;4992065;28;20070;-79
2021/12/10 09:52:43;;;;;;;16.20;9.73;;;2.50;99.90;;;;;;4991567;28;20081;-79
2021/12/10 09:55:13;;;;;;;16.38;9.75;;;2.60;99.90;;;;;;4991435;28;20046;-79
2021/12/10 09:57:40;;;;;;;16.23;9.40;;;2.60;99.90;;;;;;4991667;28;20480;-79
2021/12/10 10:00:16;;;;;;;14.60;9.52;;;2.70;99.90;;;;;;4991637;28;20042;-79
2021/12/10 10:02:42;;;;;;;16.98;9.80;;;2.70;99.90;;;;;;4975380;28;20053;-79
2021/12/10 10:05:09;;;;;;;14.10;8.93;;;2.80;99.90;;;;;;4991341;28;20420;-79
2021/12/10 10:07:37;;;;;;;19.27;9.90;;;2.90;99.90;;;;;;4975035;28;20052;-79
2021/12/10 10:10:12;;;;;;;14.50;9.65;;;2.90;99.90;;;;;;4991098;28;20053;-79
2021/12/10 10:12:40;;;;;;;14.25;8.40;;;3.00;99.90;;;;;;4991538;28;20093;-79
2021/12/10 10:15:12;;;;;;;14.15;8.38;;;3.00;99.90;;;;;;4991487;28;20050;-79
2021/12/10 10:17:38;;;;;;;15.68;9.40;;;3.00;99.90;;;;;;4991605;28;20038;-79
2021/12/10 10:20:06;;;;;;;15.93;8.65;;;3.10;99.90;;;;;;4991495;28;20034;-79
2021/12/10 10:22:32;;;;;;;14.02;8.38;;;3.10;99.90;;;;;;4991275;28;20074;-78
2021/12/10 10:24:58;;;;;;;11.77;7.82;;;3.20;99.90;;;;;;4991489;28;20084;-79
2021/12/10 10:27:31;;;;;;;13.70;8.18;;;3.20;99.90;;;;;;4991158;28;20046;-79
2021/12/10 10:30:24;;;;;;;13.52;7.90;;;3.30;99.90;;;;;;4991021;28;20042;-79
2021/12/10 10:32:52;;;;;;;13.55;8.30;;;3.30;99.90;;;;;;4985480;28;20086;-78
2021/12/10 10:35:27;;;;;;;12.45;7.75;;;3.40;99.90;;;;;;4974390;28;20085;-78
2021/12/10 10:37:55;;;;;;;17.45;8.00;;;3.50;99.90;;;;;;4976145;28;20096;-79
2021/12/10 10:40:29;;;;;;;12.93;7.28;;;3.60;99.90;;;;;;4977814;28;20039;-79
2021/12/10 10:42:56;;;;;;;13.57;7.90;;;3.60;99.90;;;;;;4979112;28;20073;-80
2021/12/10 10:45:26;;;;;;;15.60;7.32;;;3.60;99.90;;;;;;4989440;28;20132;-79
2021/12/10 10:47:54;;;;;;;11.40;7.53;;;3.70;99.90;;;;;;4989548;28;20077;-79
2021/12/10 10:50:25;;;;;;;13.95;7.28;;;3.80;99.90;;;;;;4973472;28;20050;-79
2021/12/10 10:52:54;;;;;;;12.70;7.50;;;3.80;99.90;;;;;;4991900;28;20132;-79
2021/12/10 10:55:28;;;;;;;11.40;7.40;;;3.90;99.90;;;;;;4994436;28;20050;-79
2021/12/10 10:57:57;;;;;;;11.90;6.90;;;3.90;99.90;;;;;;4994710;28;20065;-79
2021/12/10 11:00:50;;;;;;;12.05;6.95;;;3.90;99.90;;;;;;4995205;28;20038;-79
2021/12/10 11:03:22;;;;;;;11.45;6.60;;;4.00;99.90;;;;;;4994706;28;20049;-79
2021/12/10 11:05:51;;;;;;;8.13;5.88;;;4.00;99.90;;;;;;4989737;28;20046;-79
2021/12/10 11:08:38;;;;;;;10.52;6.25;;;4.10;99.90;;;;;;4994501;28;20562;-78
2021/12/10 11:11:20;;;;;;;12.13;6.65;;;4.10;99.90;;;;;;5010700;28;20068;-79
2021/12/10 11:13:51;;;;;;;11.10;6.10;;;4.10;99.90;;;;;;5010452;28;20038;-78
2021/12/10 11:16:25;;;;;;;8.63;5.55;;;4.20;99.90;;;;;;5010267;28;20113;-78
2021/12/10 11:18:55;;;;;;;11.55;5.32;;;4.20;99.90;;;;;;4994171;28;20045;-78
2021/12/10 11:21:39;;;;;;;10.55;5.50;;;4.20;99.90;;;;;;5010254;28;20256;-78
2021/12/10 11:24:12;;;;;;;9.90;5.40;;;4.20;99.90;;;;;;4993623;28;20129;-78
2021/12/10 11:27:03;;;;;;;9.75;5.68;;;4.20;99.90;;;;;;5010407;28;20400;-78
2021/12/10 11:29:42;;;;;;;10.60;5.90;;;4.20;99.90;;;;;;4994228;28;20397;-78
2021/12/10 11:32:15;;;;;;;8.30;5.20;;;4.20;99.90;;;;;;4993888;28;20455;-79
2021/12/10 11:34:46;;;;;;;9.32;5.78;;;4.20;99.90;;;;;;4994130;28;20395;-78
2021/12/10 11:37:14;;;;;;;10.50;5.53;;;4.20;99.90;;;;;;4993901;28;20046;-78
2021/12/10 11:39:44;;;;;;;8.52;5.30;;;4.30;99.90;;;;;;4993832;28;20088;-79
2021/12/10 11:42:32;;;;;;;8.50;5.40;;;4.30;99.90;;;;;;5009888;28;20134;-78
2021/12/10 11:45:28;;;;;;;8.57;6.00;;;4.30;99.90;;;;;;5010410;28;20400;-79
2021/12/10 11:48:04;;;;;;;7.72;4.85;;;4.40;99.90;;;;;;4994344;28;20408;-78
2021/12/10 11:50:30;;;;;;;11.18;5.07;;;4.40;99.90;;;;;;4993635;28;20042;-79
2021/12/10 11:53:16;;;;;;;9.65;5.30;;;4.50;99.90;;;;;;4993190;28;20228;-78
2021/12/10 11:56:02;;;;;;;9.82;5.45;;;4.50;99.90;;;;;;5009764;28;20050;-78
2021/12/10 11:58:27;;;;;;;9.40;5.57;;;4.60;99.90;;;;;;5009831;28;20117;-78
2021/12/10 12:00:54;;;;;;;8.90;5.38;;;4.60;99.90;;;;;;4993460;28;20125;-79
2021/12/10 12:03:23;;;;;;;9.07;5.28;;;4.70;99.90;;;;;;4993104;28;20468;-78
2021/12/10 12:05:49;;;;;;;9.27;5.20;;;4.70;99.90;;;;;;4993354;28;20046;-78
2021/12/10 12:08:18;;;;;;;9.68;5.70;;;4.80;99.90;;;;;;5009458;28;20038;-78
2021/12/10 12:10:54;;;;;;;8.52;5.20;;;4.80;99.90;;;;;;5009407;28;20113;-78
2021/12/10 12:13:37;;;;;;;8.07;4.88;;;4.90;99.90;;;;;;5009090;28;20053;-78
2021/12/10 12:16:13;;;;;;;10.05;5.38;;;5.00;99.90;;;;;;4992897;28;20039;-78
2021/12/10 12:18:48;;;;;;;10.35;5.25;;;5.00;99.90;;;;;;4992978;28;20055;-78
2021/12/10 12:27:06;;;;;;;8.68;4.72;;;5.10;99.90;;;;;;5009106;28;20053;-78
2021/12/10 12:29:38;;;;;;;9.02;4.80;;;5.10;99.90;;;;;;4992880;28;20455;-79
2021/12/10 12:32:13;;;;;;;7.03;4.47;;;5.10;99.90;;;;;;4992155;28;20093;-79
2021/12/10 12:34:39;;;;;;;7.88;5.05;;;5.20;99.90;;;;;;4992932;28;20042;-78
2021/12/10 12:37:08;;;;;;;9.15;4.97;;;5.20;99.90;;;;;;4992799;28;20030;-78
2021/12/10 12:39:36;;;;;;;7.28;4.30;;;5.30;99.90;;;;;;4992768;28;20388;-79
2021/12/10 12:42:05;;;;;;;7.57;4.30;;;5.40;99.90;;;;;;4992320;28;20046;-79
2021/12/10 12:44:36;;;;;;;9.02;4.70;;;5.50;99.90;;;;;;5008809;28;20061;-79
2021/12/10 12:47:12;;;;;;;7.75;5.00;;;5.80;99.90;;;;;;4992296;28;20129;-79
2021/12/10 12:49:37;;;;;;;7.45;4.63;;;6.10;99.90;;;;;;4992280;28;20038;-79
2021/12/10 12:52:16;;;;;;;8.35;4.57;;;6.30;99.90;;;;;;4992230;28;20129;-79
2021/12/10 12:55:00;;;;;;;11.10;4.75;;;6.40;99.90;;;;;;5008547;28;20515;-78
2021/12/10 12:57:40;;;;;;;7.07;4.60;;;6.40;99.90;;;;;;4992602;28;20252;-78
2021/12/10 13:00:25;;;;;;;7.47;4.70;;;6.50;99.90;;;;;;4991993;28;20132;-79
2021/12/10 13:02:58;;;;;;;9.70;4.40;;;6.60;99.90;;;;;;4991962;28;20499;-78
2021/12/10 13:05:49;;;;;;;7.33;4.30;;;6.50;99.90;;;;;;5001469;28;20436;-78
2021/12/10 13:08:22;;;;;;;9.48;5.03;;;6.20;99.90;;;;;;4989592;28;20675;-78